This is the latest recevied weather packets stored in our database for station/object SR5NLK-1. If no packets are shown the sender has not sent any weather packets the latest 10 day(s).
| Time | Temp. | Humidity | Pressure | Rain* | Wind** | Luminosity | Snow |
|---|---|---|---|---|---|---|---|
| 1787811300 | 23.89° C | 54% | 1087.8 hPa | 0 mm | - | - | - |
| 1787811000 | 24.44° C | 55% | 1058 hPa | 0 mm | - | - | - |
| 1787810700 | 23.89° C | 57% | 1072.1 hPa | 0 mm | - | - | - |
| 1787810438 | 23.89° C | 58% | 1044.1 hPa | 0 mm | - | - | - |
| 1787810416 | 18.89° C | 82% | 1053.8 hPa | 0 mm | - | - | - |
| 1787810400 | 23.89° C | 58% | 1044.1 hPa | 0 mm | - | - | - |
| 1787810100 | 22.78° C | 60% | 1065.8 hPa | 0 mm | - | - | - |
| 1787810031 | 18.33° C | 86% | 1070.7 hPa | 0 mm | - | - | - |
| 1787809919 | 22.78° C | 62% | 1033.7 hPa | 0 mm | - | - | - |
| 1787809500 | 21.67° C | 63% | 990.2 hPa | 0 mm | - | - | - |
| 1787809200 | 21.11° C | 66% | 1084.7 hPa | 0 mm | - | - | - |
| 1787808900 | 20.56° C | 67% | 1042.8 hPa | 0 mm | - | - | - |
| 1787808828 | 16.67° C | 92% | 1070.4 hPa | 0 mm | - | - | - |
| 1787808600 | 20° C | 69% | 1065.8 hPa | 0 mm | - | - | - |
| 1787808300 | 20° C | 71% | 1030.2 hPa | 0 mm | - | - | - |
| 1787808088 | 14.44° C | 92% | 1027 hPa | 0 mm | - | - | - |
| 1787808035 | 19.44° C | 73% | 1046.6 hPa | 0 mm | - | - | - |
| 1787808000 | 19.44° C | 73% | 1046.6 hPa | 0 mm | - | - | - |
| 1787807939 | 19.44° C | 74% | 1034.1 hPa | 0 mm | - | - | - |
| 1787807701 | 13.89° C | 92% | 1088.6 hPa | 0 mm | - | - | - |
| 1787807700 | 19.44° C | 76% | 1049.2 hPa | 0 mm | - | - | - |
| 1787807400 | 18.89° C | 82% | 1053.8 hPa | 0 mm | - | - | - |
| 1787807275 | 12.22° C | 90% | 1037.1 hPa | 0 mm | - | - | - |
| 1787807100 | 18.33° C | 86% | 1070.7 hPa | 0 mm | - | - | - |
| 1787806883 | 11.67° C | 89% | 1097.2 hPa | 0 mm | - | - | - |
* Rain latest hour (hover to see other rain measurements)
** Current wind speed in m/s (hover to see current wind gust speed)